Time;durP1;ratioP1;P1;durP2;ratioP2;P2;SDS_P1;SDS_P2;PMS_P1;PMS_P2;Temp;Humidity;BMP_temperature;BMP_pressure;BME280_temperature;BME280_humidity;BME280_pressure;Samples;Min_cycle;Max_cycle;Signal;HPM_P1;HPM_P2
2022/05/15 00:01:03;;;;;;;0.20;0.13;;;10.90;99.90;;;;;;5073522;28;20065;-77
2022/05/15 00:03:29;;;;;;;0.00;0.00;;;10.80;99.90;;;;;;5072898;28;20084;-77
2022/05/15 00:06:04;;;;;;;9.07;1.02;;;10.80;99.90;;;;;;5073918;28;20546;-77
2022/05/15 00:08:32;;;;;;;0.00;0.00;;;10.80;99.90;;;;;;5072867;28;20076;-77
2022/05/15 00:10:59;;;;;;;0.57;0.40;;;10.80;99.90;;;;;;5073922;28;20056;-77
2022/05/15 00:13:26;;;;;;;0.03;0.03;;;10.70;99.90;;;;;;5056207;28;20075;-77
2022/05/15 00:15:52;;;;;;;0.00;0.00;;;10.60;99.90;;;;;;5056093;28;20086;-77
2022/05/15 00:18:20;;;;;;;2.95;0.60;;;10.60;99.90;;;;;;5072750;28;20053;-77
2022/05/15 00:20:46;;;;;;;0.00;0.00;;;10.60;99.90;;;;;;5072518;28;20040;-77
2022/05/15 00:23:12;;;;;;;0.00;0.00;;;10.70;99.90;;;;;;5072191;28;20484;-77
2022/05/15 00:25:40;;;;;;;0.17;0.17;;;10.50;99.90;;;;;;5072738;28;20078;-77
2022/05/15 00:28:06;;;;;;;0.00;0.00;;;10.50;99.90;;;;;;5055841;28;20037;-77
2022/05/15 00:30:35;;;;;;;0.00;0.00;;;10.50;99.90;;;;;;5055958;28;20040;-77
2022/05/15 00:33:01;;;;;;;0.15;0.15;;;10.50;99.90;;;;;;5072592;28;20044;-77
2022/05/15 00:35:28;;;;;;;0.00;0.00;;;10.50;99.90;;;;;;5072358;28;20040;-77
2022/05/15 00:37:53;;;;;;;0.00;0.00;;;10.50;99.90;;;;;;5055512;28;20055;-77
2022/05/15 00:40:21;;;;;;;0.20;0.20;;;10.50;99.90;;;;;;5056037;28;20049;-76
2022/05/15 00:42:47;;;;;;;0.00;0.00;;;10.50;99.90;;;;;;5055815;28;20056;-77
2022/05/15 00:45:14;;;;;;;1.45;0.52;;;10.50;99.90;;;;;;5055270;28;20476;-76
2022/05/15 00:47:41;;;;;;;2.05;0.30;;;10.40;99.90;;;;;;5072225;28;20481;-76
2022/05/15 00:50:11;;;;;;;0.60;0.20;;;10.50;99.90;;;;;;5072216;28;20044;-77
2022/05/15 00:52:39;;;;;;;0.80;0.20;;;10.40;99.90;;;;;;5055937;28;20444;-77
2022/05/15 00:55:14;;;;;;;0.00;0.00;;;10.40;99.90;;;;;;5055721;28;20123;-77
2022/05/15 00:57:58;;;;;;;0.00;0.00;;;10.40;99.90;;;;;;5072731;28;20044;-77
2022/05/15 01:00:26;;;;;;;0.20;0.20;;;10.40;99.90;;;;;;5072369;28;20388;-77
2022/05/15 01:03:06;;;;;;;0.10;0.10;;;10.30;99.90;;;;;;5072540;28;20095;-77
2022/05/15 01:05:39;;;;;;;0.00;0.00;;;10.30;99.90;;;;;;5072504;28;20094;-76
2022/05/15 01:08:06;;;;;;;0.00;0.00;;;10.30;99.90;;;;;;5055489;28;20506;-77
2022/05/15 01:10:38;;;;;;;0.10;0.10;;;10.30;99.90;;;;;;5072184;28;20048;-77
2022/05/15 01:13:04;;;;;;;0.00;0.00;;;10.20;99.90;;;;;;5072753;28;20055;-77
2022/05/15 01:15:31;;;;;;;0.10;0.00;;;10.20;99.90;;;;;;5055074;28;20045;-76
2022/05/15 01:17:57;;;;;;;0.20;0.20;;;10.20;99.90;;;;;;5055545;28;20049;-77
2022/05/15 01:20:26;;;;;;;0.15;0.10;;;10.10;99.90;;;;;;5072303;28;20090;-77
2022/05/15 01:22:52;;;;;;;0.00;0.00;;;10.10;99.90;;;;;;5072130;28;20051;-77
2022/05/15 01:25:24;;;;;;;0.00;0.00;;;10.10;99.90;;;;;;5072200;28;20041;-77
2022/05/15 01:28:01;;;;;;;0.00;0.00;;;10.10;99.90;;;;;;5072183;28;20045;-76
2022/05/15 01:30:27;;;;;;;0.00;0.00;;;10.10;99.90;;;;;;5072359;28;20392;-76
2022/05/15 01:32:52;;;;;;;0.00;0.00;;;10.00;99.90;;;;;;5075651;28;20131;-76
2022/05/15 01:35:18;;;;;;;0.00;0.00;;;10.00;99.90;;;;;;5059071;28;20044;-77
2022/05/15 01:37:44;;;;;;;0.20;0.20;;;10.00;99.90;;;;;;5075766;28;20040;-77
2022/05/15 01:40:10;;;;;;;0.00;0.00;;;9.90;99.90;;;;;;5075683;28;20453;-77
2022/05/15 01:42:37;;;;;;;1.17;0.30;;;10.00;99.90;;;;;;5076094;28;20060;-76
2022/05/15 01:45:04;;;;;;;0.32;0.05;;;9.90;99.90;;;;;;5075265;28;20484;-77
2022/05/15 01:47:30;;;;;;;0.20;0.10;;;9.90;99.90;;;;;;5058717;28;20061;-76
2022/05/15 01:49:56;;;;;;;0.00;0.00;;;9.90;99.90;;;;;;5075671;28;20500;-77
2022/05/15 01:52:22;;;;;;;0.00;0.00;;;9.90;99.90;;;;;;5075464;28;20043;-77
2022/05/15 01:54:47;;;;;;;0.05;0.05;;;9.90;99.90;;;;;;5058766;28;20048;-77
2022/05/15 01:57:13;;;;;;;0.00;0.00;;;9.80;99.90;;;;;;5074936;28;20055;-77
2022/05/15 01:59:39;;;;;;;0.28;0.28;;;9.80;99.90;;;;;;5058573;28;20123;-77
2022/05/15 02:02:06;;;;;;;0.70;0.05;;;9.70;99.90;;;;;;5058388;28;20094;-77
2022/05/15 02:04:32;;;;;;;0.00;0.00;;;9.70;99.90;;;;;;5075369;28;20464;-77
2022/05/15 02:06:58;;;;;;;0.00;0.00;;;9.70;99.90;;;;;;5076251;28;20048;-77
2022/05/15 02:09:23;;;;;;;0.00;0.00;;;9.80;99.90;;;;;;5075108;28;20400;-77
2022/05/15 02:11:49;;;;;;;2.13;0.90;;;9.80;99.90;;;;;;5075211;28;20048;-77
2022/05/15 02:14:14;;;;;;;0.00;0.00;;;9.80;99.90;;;;;;5058203;28;20067;-77
2022/05/15 02:16:40;;;;;;;0.00;0.00;;;9.70;99.90;;;;;;5074764;28;20086;-77
2022/05/15 02:19:06;;;;;;;0.85;0.43;;;9.70;99.90;;;;;;5072735;28;20047;-77
2022/05/15 02:21:32;;;;;;;1.98;0.77;;;9.70;99.90;;;;;;5056342;28;20051;-77
2022/05/15 02:23:58;;;;;;;0.03;0.00;;;9.70;99.90;;;;;;5075308;28;20045;-77
2022/05/15 02:26:24;;;;;;;0.00;0.00;;;9.70;99.90;;;;;;5057878;28;20039;-77
2022/05/15 02:28:49;;;;;;;0.17;0.17;;;9.70;99.90;;;;;;5074519;28;20119;-77
2022/05/15 02:31:16;;;;;;;0.00;0.00;;;9.70;99.90;;;;;;5074846;28;20127;-77
2022/05/15 02:33:42;;;;;;;0.00;0.00;;;9.70;99.90;;;;;;5074792;28;20048;-77
2022/05/15 02:36:08;;;;;;;0.00;0.00;;;9.60;99.90;;;;;;5057817;28;20049;-77
2022/05/15 02:38:35;;;;;;;0.00;0.00;;;9.60;99.90;;;;;;5074480;28;20063;-77
2022/05/15 02:41:01;;;;;;;0.00;0.00;;;9.60;99.90;;;;;;5074861;28;20041;-77
2022/05/15 02:43:27;;;;;;;0.00;0.00;;;9.50;99.90;;;;;;5057623;28;20408;-77
2022/05/15 02:45:53;;;;;;;0.93;0.15;;;9.50;99.90;;;;;;5074121;28;20068;-77
2022/05/15 02:51:05;;;;;;;0.00;0.00;;;9.50;99.90;;;;;;5074231;28;20551;-77
2022/05/15 02:53:43;;;;;;;0.00;0.00;;;9.40;99.90;;;;;;5074995;28;20036;-77
2022/05/15 02:56:12;;;;;;;0.00;0.00;;;9.40;99.90;;;;;;5057618;28;20045;-77
2022/05/15 02:58:38;;;;;;;0.13;0.13;;;9.40;99.90;;;;;;5074407;28;20044;-77
2022/05/15 03:01:04;;;;;;;0.95;0.85;;;9.40;99.90;;;;;;5057499;28;20053;-77
2022/05/15 03:03:30;;;;;;;0.05;0.05;;;9.40;99.90;;;;;;5057137;28;20056;-77
2022/05/15 03:05:56;;;;;;;0.10;0.10;;;9.40;99.90;;;;;;5057648;28;20047;-77
2022/05/15 03:08:22;;;;;;;0.15;0.13;;;9.40;99.90;;;;;;5057699;28;20135;-77
2022/05/15 03:10:48;;;;;;;0.00;0.00;;;9.30;99.90;;;;;;5074052;28;20132;-77
2022/05/15 03:13:14;;;;;;;0.00;0.00;;;9.30;99.90;;;;;;5057562;28;20083;-77
2022/05/15 03:15:40;;;;;;;0.10;0.03;;;9.20;99.90;;;;;;5073722;28;20050;-77
2022/05/15 03:18:06;;;;;;;0.00;0.00;;;9.20;99.90;;;;;;5057224;28;20102;-77
2022/05/15 03:20:31;;;;;;;0.00;0.00;;;9.20;99.90;;;;;;5074125;28;20128;-77
2022/05/15 03:22:58;;;;;;;0.00;0.00;;;9.20;99.90;;;;;;5074029;28;20464;-77
2022/05/15 03:25:26;;;;;;;0.10;0.00;;;9.20;99.90;;;;;;5073962;28;20048;-77
2022/05/15 03:27:53;;;;;;;0.00;0.00;;;9.20;99.90;;;;;;5073644;28;20044;-77
2022/05/15 03:30:18;;;;;;;0.57;0.20;;;9.20;99.90;;;;;;5073687;28;20044;-77
2022/05/15 03:32:44;;;;;;;0.75;0.43;;;9.20;99.90;;;;;;5056851;28;20375;-78
2022/05/15 03:35:11;;;;;;;0.00;0.00;;;9.20;99.90;;;;;;5073438;28;20419;-77
2022/05/15 03:37:38;;;;;;;0.00;0.00;;;9.20;99.90;;;;;;5073515;28;20055;-77
2022/05/15 03:40:05;;;;;;;0.10;0.10;;;9.10;99.90;;;;;;5073861;28;20061;-77
2022/05/15 03:42:31;;;;;;;0.35;0.35;;;9.20;99.90;;;;;;5056971;28;20066;-77
2022/05/15 03:44:57;;;;;;;0.35;0.35;;;9.20;99.90;;;;;;5073145;28;20052;-77
2022/05/15 03:47:24;;;;;;;0.00;0.00;;;9.20;99.90;;;;;;5056251;28;20040;-77
2022/05/15 03:49:50;;;;;;;2.03;0.65;;;9.20;99.90;;;;;;5073140;28;20045;-77
2022/05/15 03:52:16;;;;;;;0.03;0.00;;;9.20;99.90;;;;;;5056618;28;20118;-77
2022/05/15 03:54:43;;;;;;;0.00;0.00;;;9.10;99.90;;;;;;5072815;28;20083;-77
2022/05/15 03:57:09;;;;;;;0.00;0.00;;;9.20;99.90;;;;;;5073179;28;20044;-77
2022/05/15 03:59:38;;;;;;;0.00;0.00;;;9.10;99.90;;;;;;5073190;28;20094;-77
2022/05/15 04:02:06;;;;;;;0.00;0.00;;;9.10;99.90;;;;;;5073106;28;20036;-77
2022/05/15 04:04:32;;;;;;;0.20;0.20;;;9.00;99.90;;;;;;5072905;28;20059;-77
2022/05/15 04:06:59;;;;;;;0.00;0.00;;;9.10;99.90;;;;;;5055983;28;20143;-77
2022/05/15 04:09:26;;;;;;;0.20;0.20;;;9.10;99.90;;;;;;5072844;28;20048;-77
2022/05/15 04:11:51;;;;;;;0.00;0.00;;;9.10;99.90;;;;;;5072924;28;20480;-77
2022/05/15 04:14:17;;;;;;;0.00;0.00;;;9.10;99.90;;;;;;5072845;28;20051;-77
2022/05/15 04:16:43;;;;;;;0.00;0.00;;;9.10;99.90;;;;;;5072499;28;20424;-78
2022/05/15 04:19:09;;;;;;;0.00;0.00;;;9.20;99.90;;;;;;5056129;28;20084;-77
2022/05/15 04:21:40;;;;;;;0.28;0.20;;;9.20;99.90;;;;;;5072758;28;20388;-77
2022/05/15 04:24:11;;;;;;;0.30;0.30;;;9.20;99.90;;;;;;5056249;28;20052;-77
2022/05/15 04:26:37;;;;;;;0.00;0.00;;;9.20;99.90;;;;;;5056017;28;20052;-77
2022/05/15 04:29:04;;;;;;;0.10;0.10;;;9.30;99.90;;;;;;5072201;28;20468;-77
2022/05/15 04:31:30;;;;;;;0.00;0.00;;;9.40;99.90;;;;;;5055876;28;20514;-77
2022/05/15 04:33:56;;;;;;;0.03;0.00;;;9.40;99.90;;;;;;5072704;28;20127;-77
2022/05/15 04:36:23;;;;;;;0.15;0.00;;;9.50;99.90;;;;;;5072294;28;20455;-77
2022/05/15 04:38:49;;;;;;;0.00;0.00;;;9.50;99.90;;;;;;5072713;28;20480;-77
2022/05/15 04:41:14;;;;;;;0.00;0.00;;;9.50;99.90;;;;;;5071946;28;20048;-77
2022/05/15 04:43:40;;;;;;;2.63;0.43;;;9.60;99.90;;;;;;5072689;28;20127;-77
2022/05/15 04:46:07;;;;;;;0.00;0.00;;;9.60;99.90;;;;;;5072077;28;20121;-77
2022/05/15 04:48:42;;;;;;;0.00;0.00;;;9.70;99.90;;;;;;5072764;28;20385;-77
2022/05/15 04:51:08;;;;;;;0.00;0.00;;;9.70;99.90;;;;;;5055710;28;20422;-77
2022/05/15 04:53:33;;;;;;;5.20;1.02;;;9.80;99.90;;;;;;5072436;28;20036;-77
2022/05/15 04:56:00;;;;;;;1.55;0.30;;;9.80;99.90;;;;;;5055523;28;20492;-78
2022/05/15 04:58:27;;;;;;;0.00;0.00;;;9.90;99.90;;;;;;5072381;28;20048;-77
2022/05/15 05:00:53;;;;;;;0.00;0.00;;;9.90;99.90;;;;;;5072589;28;20108;-78
2022/05/15 05:03:19;;;;;;;8.32;1.00;;;10.00;99.90;;;;;;5072940;28;20048;-78
2022/05/15 05:05:45;;;;;;;0.00;0.00;;;10.10;99.90;;;;;;5055563;28;20147;-78
2022/05/15 05:08:12;;;;;;;0.00;0.00;;;10.20;99.90;;;;;;5059628;28;20045;-78
2022/05/15 05:10:39;;;;;;;0.10;0.08;;;10.20;99.90;;;;;;5060304;28;20056;-78
2022/05/15 05:13:06;;;;;;;1.42;0.60;;;10.30;99.90;;;;;;5076709;28;20044;-78
2022/05/15 05:15:31;;;;;;;0.00;0.00;;;10.40;99.90;;;;;;5076253;28;20131;-77
2022/05/15 05:17:57;;;;;;;0.10;0.10;;;10.50;99.90;;;;;;5076275;28;20127;-78
2022/05/15 05:20:24;;;;;;;0.00;0.00;;;10.50;99.90;;;;;;5076535;28;20061;-77
2022/05/15 05:22:50;;;;;;;0.00;0.00;;;10.70;99.90;;;;;;5076255;28;20127;-77
2022/05/15 05:25:17;;;;;;;0.43;0.15;;;10.70;99.90;;;;;;5076118;28;20541;-78
2022/05/15 05:27:43;;;;;;;0.00;0.00;;;10.70;99.90;;;;;;5076833;28;20403;-78
2022/05/15 05:30:22;;;;;;;0.03;0.00;;;10.80;99.90;;;;;;5075980;28;20095;-78
2022/05/15 05:32:48;;;;;;;0.00;0.00;;;10.90;99.90;;;;;;5076179;28;20087;-78
2022/05/15 05:35:15;;;;;;;0.08;0.08;;;11.00;99.90;;;;;;5076014;28;20040;-78
2022/05/15 05:37:41;;;;;;;0.52;0.52;;;11.10;99.90;;;;;;5075995;28;20507;-78
2022/05/15 05:40:08;;;;;;;0.22;0.22;;;11.20;99.90;;;;;;5076006;28;20040;-78
2022/05/15 05:42:33;;;;;;;0.05;0.05;;;11.40;99.90;;;;;;5075533;28;20117;-78
2022/05/15 05:45:02;;;;;;;0.00;0.00;;;11.60;99.90;;;;;;5074611;28;20064;-78
2022/05/15 05:47:29;;;;;;;1.85;0.98;;;11.80;99.90;;;;;;5075894;28;20048;-78
2022/05/15 05:49:55;;;;;;;0.90;0.20;;;11.90;99.90;;;;;;5075520;28;20426;-78
2022/05/15 05:52:21;;;;;;;0.10;0.10;;;12.00;99.90;;;;;;5059007;28;20102;-77
2022/05/15 05:54:47;;;;;;;0.60;0.30;;;12.00;99.90;;;;;;5076136;28;20040;-77
2022/05/15 05:57:13;;;;;;;0.00;0.00;;;12.00;99.90;;;;;;5058673;28;20057;-78
2022/05/15 05:59:39;;;;;;;0.43;0.28;;;12.00;99.90;;;;;;5058850;28;20048;-78
2022/05/15 06:02:06;;;;;;;2.22;0.65;;;12.10;99.90;;;;;;5075670;28;20044;-79
2022/05/15 06:04:46;;;;;;;0.00;0.00;;;12.20;99.90;;;;;;5075453;28;20075;-78
2022/05/15 06:07:19;;;;;;;0.30;0.25;;;12.20;99.90;;;;;;5058991;28;20048;-78
2022/05/15 06:09:46;;;;;;;0.00;0.00;;;12.30;99.90;;;;;;5075805;28;20044;-78
2022/05/15 06:12:14;;;;;;;0.10;0.10;;;12.40;99.90;;;;;;5058754;28;20044;-78
2022/05/15 06:14:39;;;;;;;0.28;0.28;;;12.50;99.90;;;;;;5075322;28;20044;-79
2022/05/15 06:17:05;;;;;;;0.00;0.00;;;12.60;99.90;;;;;;5058070;28;20054;-77
2022/05/15 06:19:32;;;;;;;0.10;0.10;;;12.70;99.90;;;;;;5074919;28;20496;-78
2022/05/15 06:21:57;;;;;;;0.28;0.20;;;12.80;99.90;;;;;;5058515;28;20049;-78
2022/05/15 06:24:25;;;;;;;0.28;0.10;;;12.90;99.90;;;;;;5075254;28;20075;-78
2022/05/15 06:26:51;;;;;;;0.00;0.00;;;12.90;99.90;;;;;;5075035;28;20094;-77
2022/05/15 06:29:17;;;;;;;0.00;0.00;;;13.00;99.90;;;;;;5075274;28;20472;-78
2022/05/15 06:31:43;;;;;;;0.17;0.17;;;13.10;99.90;;;;;;5074957;28;20044;-77
2022/05/15 06:34:13;;;;;;;0.00;0.00;;;13.10;99.90;;;;;;5074709;28;20484;-78
2022/05/15 06:36:39;;;;;;;0.00;0.00;;;13.20;99.90;;;;;;5074900;28;20045;-78
2022/05/15 06:39:05;;;;;;;1.45;0.52;;;13.30;99.90;;;;;;5058009;28;20052;-78
2022/05/15 06:41:31;;;;;;;0.13;0.13;;;13.50;99.90;;;;;;5074914;28;20365;-78
2022/05/15 06:43:57;;;;;;;0.20;0.20;;;13.60;99.90;;;;;;5074767;28;20089;-79
2022/05/15 06:46:23;;;;;;;0.00;0.00;;;13.70;99.90;;;;;;5073563;28;20060;-79
2022/05/15 06:48:49;;;;;;;1.55;0.70;;;13.80;99.90;;;;;;5074766;28;20075;-78
2022/05/15 06:51:16;;;;;;;0.00;0.00;;;14.00;99.90;;;;;;5074591;28;20056;-77
2022/05/15 06:53:46;;;;;;;0.00;0.00;;;14.10;99.90;;;;;;5058010;28;20053;-76
2022/05/15 06:58:57;;;;;;;0.00;0.00;;;14.40;99.90;;;;;;5074905;28;20398;-76
2022/05/15 07:01:23;;;;;;;1.08;0.52;;;14.50;99.90;;;;;;5074468;28;20045;-76
2022/05/15 07:03:49;;;;;;;0.38;0.25;;;14.70;99.90;;;;;;5073189;28;20091;-77
2022/05/15 07:06:15;;;;;;;0.00;0.00;;;14.90;99.90;;;;;;5057547;28;20522;-77
2022/05/15 07:08:42;;;;;;;0.03;0.03;;;15.00;99.90;;;;;;5074227;28;20129;-76
2022/05/15 07:11:10;;;;;;;2.30;0.52;;;15.20;99.90;;;;;;5074149;28;20059;-77
2022/05/15 07:13:36;;;;;;;0.00;0.00;;;15.40;99.90;;;;;;5057457;28;20151;-77
2022/05/15 07:16:02;;;;;;;0.00;0.00;;;15.50;99.90;;;;;;5073863;28;20041;-76
2022/05/15 07:18:29;;;;;;;0.00;0.00;;;15.70;99.90;;;;;;5074049;28;20036;-77
2022/05/15 07:20:54;;;;;;;0.17;0.17;;;16.00;99.90;;;;;;5073710;28;20488;-77
2022/05/15 07:23:21;;;;;;;0.00;0.00;;;16.10;99.80;;;;;;5057189;28;20072;-76
2022/05/15 07:25:49;;;;;;;0.32;0.25;;;16.40;99.90;;;;;;5073747;28;20467;-77
2022/05/15 07:28:15;;;;;;;0.00;0.00;;;16.60;98.90;;;;;;5073197;28;20139;-76
2022/05/15 07:30:41;;;;;;;0.08;0.00;;;16.80;98.90;;;;;;5073136;28;20044;-76
2022/05/15 07:33:07;;;;;;;0.00;0.00;;;17.10;99.00;;;;;;5073856;28;20044;-76
2022/05/15 07:35:33;;;;;;;0.00;0.00;;;17.30;98.70;;;;;;5073619;28;20049;-76
2022/05/15 07:37:58;;;;;;;0.30;0.30;;;17.40;97.90;;;;;;5073655;28;20379;-76
2022/05/15 07:40:24;;;;;;;0.00;0.00;;;17.60;98.80;;;;;;5073505;28;20093;-76
2022/05/15 07:42:49;;;;;;;0.17;0.17;;;17.80;97.80;;;;;;5057021;28;20053;-76
2022/05/15 07:45:19;;;;;;;0.25;0.00;;;17.90;96.60;;;;;;5072942;28;20131;-77
2022/05/15 07:47:45;;;;;;;0.00;0.00;;;18.00;96.90;;;;;;5056692;28;20041;-76
2022/05/15 07:50:11;;;;;;;0.25;0.10;;;18.10;96.50;;;;;;5073483;28;20040;-77
2022/05/15 07:52:37;;;;;;;0.00;0.00;;;18.20;94.70;;;;;;5073341;28;20055;-76
2022/05/15 07:55:06;;;;;;;0.00;0.00;;;18.20;95.00;;;;;;5073098;28;20392;-76
2022/05/15 07:57:34;;;;;;;0.43;0.43;;;18.30;95.60;;;;;;5056694;28;20496;-77
2022/05/15 08:00:05;;;;;;;2.50;1.08;;;18.30;94.20;;;;;;5056670;28;20573;-76
2022/05/15 08:02:31;;;;;;;0.00;0.00;;;18.40;95.40;;;;;;5073192;28;20497;-76
2022/05/15 08:08:00;;;;;;;0.20;0.20;;;18.50;93.10;;;;;;5035619;28;20056;-77
2022/05/15 08:10:28;;;;;;;0.10;0.10;;;18.70;92.80;;;;;;5035461;28;20489;-77
2022/05/15 08:12:54;;;;;;;0.00;0.00;;;18.80;92.20;;;;;;5035415;28;20137;-77
2022/05/15 08:15:20;;;;;;;0.00;0.00;;;18.80;92.10;;;;;;5018756;28;20088;-76
2022/05/15 08:17:46;;;;;;;0.32;0.30;;;19.00;92.10;;;;;;5035469;28;20041;-76
2022/05/15 08:23:38;;;;;;;0.22;0.03;;;19.30;91.90;;;;;;5035372;28;20141;-77
2022/05/15 08:25:46;;;;;;;0.47;0.30;;;19.30;90.10;;;;;;5027424;28;20068;-77
2022/05/15 08:28:12;;;;;;;0.52;0.20;;;19.40;89.90;;;;;;5052123;28;20056;-77
2022/05/15 08:30:38;;;;;;;0.00;0.00;;;19.40;88.10;;;;;;5019195;28;20056;-77
2022/05/15 08:33:05;;;;;;;0.30;0.30;;;19.50;89.90;;;;;;5036230;28;20048;-77
2022/05/15 08:35:31;;;;;;;3.13;0.75;;;19.60;90.30;;;;;;5018530;28;20049;-76
2022/05/15 08:37:57;;;;;;;0.32;0.32;;;19.70;89.80;;;;;;5035763;28;20045;-76
2022/05/15 08:40:28;;;;;;;0.17;0.00;;;19.80;91.10;;;;;;5018893;28;20086;-76
2022/05/15 08:42:56;;;;;;;0.00;0.00;;;20.00;89.80;;;;;;5052136;28;20057;-77
2022/05/15 08:45:29;;;;;;;0.08;0.03;;;20.00;88.60;;;;;;5056297;28;20135;-76
2022/05/15 08:48:10;;;;;;;0.00;0.00;;;20.10;88.30;;;;;;5073159;28;20384;-77
2022/05/15 08:50:48;;;;;;;0.73;0.20;;;20.10;85.20;;;;;;5073154;28;20055;-76
2022/05/15 08:53:28;;;;;;;0.00;0.00;;;20.30;89.00;;;;;;5073138;28;20088;-76
2022/05/15 08:55:57;;;;;;;0.55;0.40;;;20.40;87.00;;;;;;5073025;28;20119;-77
2022/05/15 08:58:25;;;;;;;0.20;0.20;;;20.50;84.40;;;;;;5056141;28;20060;-77
2022/05/15 09:00:53;;;;;;;0.10;0.10;;;20.50;83.90;;;;;;5055821;28;20057;-77
2022/05/15 09:03:28;;;;;;;0.00;0.00;;;20.60;83.70;;;;;;5072193;28;20583;-76
2022/05/15 09:05:55;;;;;;;;;;;20.70;84.40;;;;;;5072856;28;20060;-76
2022/05/15 09:08:40;;;;;;;0.68;0.40;;;20.80;86.10;;;;;;5072388;28;19928;-77
2022/05/15 09:11:09;;;;;;;0.88;0.73;;;20.80;84.40;;;;;;5071648;28;20145;-77
2022/05/15 09:13:47;;;;;;;0.08;0.00;;;21.00;82.80;;;;;;5055632;28;20044;-76
2022/05/15 09:16:19;;;;;;;0.00;0.00;;;21.10;84.40;;;;;;5072102;28;20081;-76
2022/05/15 09:18:45;;;;;;;0.00;0.00;;;21.30;85.80;;;;;;5073007;28;20045;-76
2022/05/15 09:21:13;;;;;;;0.00;0.00;;;21.50;84.90;;;;;;5055964;28;20378;-76
2022/05/15 09:23:52;;;;;;;0.75;0.75;;;21.60;84.20;;;;;;5072175;28;20047;-76
2022/05/15 09:26:30;;;;;;;0.00;0.00;;;21.70;83.00;;;;;;5072354;28;20048;-77
2022/05/15 09:29:01;;;;;;;0.00;0.00;;;21.90;80.10;;;;;;5072164;28;20045;-77
2022/05/15 09:31:42;;;;;;;0.17;0.13;;;22.00;79.60;;;;;;5072447;28;20075;-76
2022/05/15 09:34:30;;;;;;;1.27;0.20;;;22.10;81.00;;;;;;5067311;28;20075;-76
2022/05/15 09:39:47;;;;;;;0.43;0.43;;;22.10;76.60;;;;;;5014522;28;20132;-76
2022/05/15 09:45:19;;;;;;;9.98;1.20;;;22.30;76.40;;;;;;5014271;28;20049;-77
2022/05/15 09:47:52;;;;;;;0.10;0.05;;;22.40;73.70;;;;;;5014750;28;20061;-76
2022/05/15 09:50:48;;;;;;;0.38;0.17;;;22.50;77.70;;;;;;4998041;28;20064;-76
2022/05/15 09:53:25;;;;;;;1.17;0.35;;;22.40;74.20;;;;;;5016640;28;20041;-77
2022/05/15 09:56:10;;;;;;;0.05;0.03;;;22.60;74.10;;;;;;5018054;28;20137;-76
2022/05/15 09:58:51;;;;;;;0.05;0.05;;;22.80;74.20;;;;;;5018151;28;20148;-76
2022/05/15 10:01:34;;;;;;;0.00;0.00;;;22.90;74.60;;;;;;5018177;28;20052;-77
2022/05/15 10:04:01;;;;;;;0.43;0.10;;;23.00;73.10;;;;;;5017995;28;20554;-76
2022/05/15 10:06:30;;;;;;;0.00;0.00;;;23.10;73.00;;;;;;5017925;28;20061;-75
2022/05/15 10:09:07;;;;;;;0.05;0.00;;;23.10;72.50;;;;;;5017748;28;20053;-77
2022/05/15 10:11:35;;;;;;;0.10;0.00;;;23.30;72.40;;;;;;5001047;28;20064;-76
2022/05/15 10:14:02;;;;;;;0.00;0.00;;;23.60;75.70;;;;;;5034571;28;20454;-76
2022/05/15 10:16:30;;;;;;;3.78;0.85;;;23.70;71.00;;;;;;5030835;28;20394;-76
2022/05/15 10:18:58;;;;;;;0.00;0.00;;;23.90;75.10;;;;;;5071919;28;20044;-76
2022/05/15 10:21:33;;;;;;;0.00;0.00;;;24.00;68.40;;;;;;5058479;28;20117;-76
2022/05/15 10:24:06;;;;;;;0.20;0.20;;;23.90;70.10;;;;;;5074861;28;20048;-76
2022/05/15 10:26:38;;;;;;;6.57;0.75;;;23.90;66.20;;;;;;5074797;28;20045;-76
2022/05/15 10:29:25;;;;;;;0.50;0.10;;;23.80;68.10;;;;;;5074971;28;20045;-76
2022/05/15 10:32:17;;;;;;;0.00;0.00;;;23.80;70.70;;;;;;5075145;28;20044;-76
2022/05/15 10:34:43;;;;;;;1.08;0.47;;;24.00;68.30;;;;;;5074867;28;20080;-76
2022/05/15 10:37:18;;;;;;;0.38;0.10;;;24.00;68.60;;;;;;5074583;28;20485;-76
2022/05/15 10:40:03;;;;;;;1.85;0.30;;;24.20;70.80;;;;;;5058034;28;20045;-76
2022/05/15 10:42:47;;;;;;;;;;;24.40;65.10;;;;;;5075359;28;20056;-77
2022/05/15 10:45:21;;;;;;;0.20;0.20;;;24.40;66.50;;;;;;5074145;28;19924;-77
2022/05/15 10:47:58;;;;;;;0.05;0.05;;;24.40;64.00;;;;;;5058028;28;20090;-76
2022/05/15 10:51:01;;;;;;;0.17;0.17;;;24.50;67.30;;;;;;5074613;28;20082;-76
2022/05/15 10:59:50;;;;;;;0.00;0.00;;;24.80;66.80;;;;;;5074501;28;20059;-76
2022/05/15 11:02:40;;;;;;;0.00;0.00;;;24.90;62.80;;;;;;5074377;28;20082;-76
2022/05/15 11:05:43;;;;;;;0.00;0.00;;;25.00;62.60;;;;;;5074133;28;20526;-76
2022/05/15 11:08:33;;;;;;;2.20;0.30;;;25.00;62.80;;;;;;5036546;28;20048;-78
2022/05/15 11:11:25;;;;;;;0.00;0.00;;;24.70;60.50;;;;;;5036210;28;20194;-77
2022/05/15 11:14:15;;;;;;;0.00;0.00;;;24.90;62.90;;;;;;5036955;28;20052;-77
2022/05/15 11:17:08;;;;;;;0.00;0.00;;;25.00;61.90;;;;;;5036517;28;20088;-78
2022/05/15 11:19:38;;;;;;;0.00;0.00;;;25.10;62.70;;;;;;5036999;28;20147;-78
2022/05/15 11:22:24;;;;;;;0.08;0.00;;;25.30;59.80;;;;;;5036462;28;20065;-77
2022/05/15 11:25:04;;;;;;;0.00;0.00;;;25.20;60.40;;;;;;5036594;28;20130;-77
2022/05/15 11:27:45;;;;;;;0.00;0.00;;;25.30;60.10;;;;;;5036401;28;20396;-77
2022/05/15 11:30:36;;;;;;;0.10;0.10;;;25.20;58.40;;;;;;5036383;28;20452;-78
2022/05/15 11:33:09;;;;;;;0.00;0.00;;;25.30;59.10;;;;;;5035897;28;20045;-77
2022/05/15 11:36:01;;;;;;;0.00;0.00;;;25.30;58.50;;;;;;5036349;28;20049;-78
2022/05/15 11:38:29;;;;;;;0.00;0.00;;;25.40;59.50;;;;;;5035885;28;20080;-78
2022/05/15 11:40:56;;;;;;;0.17;0.17;;;25.30;59.10;;;;;;5036011;28;20052;-78
2022/05/15 11:43:30;;;;;;;0.00;0.00;;;25.10;56.90;;;;;;5048090;28;20056;-78
2022/05/15 11:46:11;;;;;;;0.20;0.20;;;25.00;59.70;;;;;;5056439;28;20137;-77
2022/05/15 11:48:42;;;;;;;0.00;0.00;;;25.10;61.40;;;;;;5073617;28;20057;-77
2022/05/15 11:51:14;;;;;;;2.08;0.45;;;25.20;61.10;;;;;;5073406;28;20284;-78
2022/05/15 11:54:01;;;;;;;0.45;0.10;;;25.20;58.80;;;;;;5073414;28;20392;-77
2022/05/15 11:56:40;;;;;;;0.05;0.05;;;25.30;57.40;;;;;;5070418;28;20040;-78
2022/05/15 11:59:15;;;;;;;0.00;0.00;;;25.50;58.80;;;;;;5044508;28;20060;-78
2022/05/15 12:01:45;;;;;;;1.08;0.52;;;25.70;59.00;;;;;;5053834;28;20048;-78
2022/05/15 12:04:36;;;;;;;0.00;0.00;;;25.70;57.00;;;;;;5060742;28;20044;-77
2022/05/15 12:07:01;;;;;;;0.00;0.00;;;25.60;57.30;;;;;;5036363;28;20056;-77
2022/05/15 12:09:52;;;;;;;0.00;0.00;;;25.70;58.40;;;;;;5052641;28;20385;-77
2022/05/15 12:12:56;;;;;;;0.70;0.25;;;25.60;53.80;;;;;;5052880;28;20052;-77
2022/05/15 12:15:32;;;;;;;0.20;0.00;;;25.80;56.10;;;;;;5057724;28;20396;-77
2022/05/15 12:18:00;;;;;;;0.38;0.30;;;26.00;55.10;;;;;;5055686;28;20045;-78
2022/05/15 12:20:29;;;;;;;0.00;0.00;;;26.00;55.30;;;;;;5036329;28;20052;-77
2022/05/15 12:22:58;;;;;;;0.08;0.08;;;26.00;55.90;;;;;;5052945;28;20048;-78
2022/05/15 12:25:29;;;;;;;0.10;0.00;;;26.20;56.50;;;;;;5052825;28;20135;-78
2022/05/15 12:30:52;;;;;;;0.00;0.00;;;25.90;56.40;;;;;;5052878;28;20118;-77
2022/05/15 12:33:28;;;;;;;0.32;0.30;;;25.90;53.90;;;;;;5036565;28;20135;-78
2022/05/15 12:35:55;;;;;;;0.00;0.00;;;26.10;55.40;;;;;;5052563;28;20048;-78
2022/05/15 12:38:23;;;;;;;0.00;0.00;;;26.10;54.20;;;;;;5052636;28;20439;-78
2022/05/15 12:41:03;;;;;;;0.00;0.00;;;26.20;54.40;;;;;;5035921;28;20057;-78
2022/05/15 12:43:33;;;;;;;0.43;0.40;;;26.40;55.90;;;;;;5052637;28;20045;-77
2022/05/15 12:46:00;;;;;;;7.22;1.13;;;26.30;53.80;;;;;;5052257;28;20411;-77
2022/05/15 12:48:28;;;;;;;0.00;0.00;;;26.20;52.80;;;;;;5035801;28;20055;-78
2022/05/15 12:51:06;;;;;;;0.00;0.00;;;26.30;53.90;;;;;;5052253;28;20070;-83
2022/05/15 12:53:40;;;;;;;0.40;0.20;;;26.20;52.30;;;;;;5036709;28;20045;-78
2022/05/15 12:56:12;;;;;;;0.00;0.00;;;26.20;52.50;;;;;;5052400;28;20404;-77
2022/05/15 12:58:39;;;;;;;1.17;0.13;;;26.30;52.00;;;;;;5035775;28;20049;-78
2022/05/15 13:01:05;;;;;;;0.00;0.00;;;26.10;52.20;;;;;;5052502;28;20052;-78
2022/05/15 13:03:31;;;;;;;0.10;0.10;;;26.40;56.40;;;;;;5052340;28;20546;-78
2022/05/15 13:06:00;;;;;;;0.55;0.55;;;26.50;52.80;;;;;;5035355;28;20187;-77
2022/05/15 13:08:42;;;;;;;0.00;0.00;;;26.50;52.20;;;;;;5052358;28;20048;-77
2022/05/15 13:11:08;;;;;;;0.00;0.00;;;26.70;52.90;;;;;;5052253;28;20045;-78
2022/05/15 13:13:37;;;;;;;2.38;0.40;;;26.70;52.30;;;;;;5052119;28;20041;-77
2022/05/15 13:16:06;;;;;;;0.00;0.00;;;26.60;50.70;;;;;;5035305;28;20048;-77
2022/05/15 13:18:34;;;;;;;0.08;0.08;;;26.50;50.40;;;;;;5052592;28;20140;-77
2022/05/15 13:21:09;;;;;;;1.50;0.95;;;26.40;50.50;;;;;;5035224;28;20088;-77
2022/05/15 13:23:44;;;;;;;0.00;0.00;;;26.50;53.10;;;;;;5035630;28;20180;-77
2022/05/15 13:26:24;;;;;;;3.75;0.43;;;26.60;53.40;;;;;;5034964;28;20056;-77
2022/05/15 13:28:50;;;;;;;0.00;0.00;;;26.60;50.20;;;;;;5055401;28;20508;-78
2022/05/15 13:31:16;;;;;;;0.00;0.00;;;26.70;51.70;;;;;;5056180;28;20040;-77